Siam — SGIP — position and weather

sailwx.info

Track history (hours):
 
Tides and Currents Weather Stations Pressure Air Temp Water Temp Dewpoint Dewpoint Depression Visibility Wind Speed Wind Dir Waves Ship Positions

Siam

Last reported at 2014-Oct-31 23:33 UTC. Time now 2014-Nov-01 00:34 UTC.
Position N 55°60' E 012°45'.

Length 22 m.

Type: Passenger vessel. MMSI: 265572320.

Date/timePositionNaut miles runAvg speedWind from/ knotsBaromVisibWave heightAir tempDewpointWater temp
2014-Oct-31 23:33N 55°60' E 012°45'0 0.0
2014-Oct-31 22:33N 55°60' E 012°45'0 0.0
2014-Oct-31 21:33N 55°60' E 012°45'0 0.0
2014-Oct-31 20:33N 55°60' E 012°45'0 0.0
2014-Oct-31 19:33N 55°60' E 012°45'0 0.0
2014-Oct-31 18:33N 55°60' E 012°45'0 0.0
2014-Oct-31 17:33N 55°60' E 012°45'0 0.0
2014-Oct-31 16:33N 55°60' E 012°45'0 0.0
2014-Oct-31 15:33N 55°60' E 012°45'0 0.0
2014-Oct-31 14:33N 55°60' E 012°45'0 0.0
2014-Oct-31 13:33N 55°60' E 012°45'0 0.0
2014-Oct-31 12:30N 55°60' E 012°45'0 0.0
2014-Oct-31 11:33N 55°60' E 012°45'0 0.0
2014-Oct-31 10:33N 55°60' E 012°45'0 0.0
2014-Oct-31 09:33N 55°60' E 012°45'0 0.0
2014-Oct-31 08:33N 55°60' E 012°45'0 0.0
2014-Oct-31 07:30N 55°60' E 012°45'0 0.0
2014-Oct-31 06:33N 55°60' E 012°45'0 0.0
2014-Oct-31 05:33N 55°60' E 012°45'0 0.0
2014-Oct-31 04:33N 55°60' E 012°45'0 0.0
2014-Oct-31 03:33N 55°60' E 012°45'0 0.0
2014-Oct-31 02:33N 55°60' E 012°45'0 0.0
2014-Oct-31 01:33N 55°60' E 012°45'0 0.0
2014-Oct-31 00:33N 55°60' E 012°45'0 0.0
2014-Oct-30 23:33N 55°60' E 012°45'0 0.0
2014-Oct-30 22:33N 55°60' E 012°45'0 0.0
2014-Oct-30 21:33N 55°60' E 012°45'0 0.0
2014-Oct-30 20:33N 55°60' E 012°45'0 0.0
2014-Oct-30 19:33N 55°60' E 012°45'0 0.0
2014-Oct-30 18:30N 55°60' E 012°45'0 0.0
2014-Oct-30 17:33N 55°60' E 012°45'0 0.0
2014-Oct-30 16:33N 55°60' E 012°45'0 0.0
2014-Oct-30 15:33N 55°60' E 012°45'0 0.0
2014-Oct-30 14:33N 55°60' E 012°45'0 0.0
2014-Oct-30 13:33N 55°60' E 012°45'0 0.0
2014-Oct-30 12:33N 55°60' E 012°45'0 0.0
2014-Oct-30 11:33N 55°60' E 012°45'0 0.0
2014-Oct-30 10:33N 55°60' E 012°45'0 0.0
2014-Oct-30 09:33N 55°60' E 012°45'0 0.0
2014-Oct-30 08:33N 55°60' E 012°45'0 0.0
2014-Oct-30 07:33N 55°60' E 012°45'0 0.0
2014-Oct-30 06:27N 55°60' E 012°45'0 0.0
2014-Oct-30 05:34N 55°60' E 012°45'0 0.0
2014-Oct-30 04:34N 55°60' E 012°45'0 0.0
2014-Oct-30 03:31N 55°60' E 012°45'0 0.0
2014-Oct-30 02:31N 55°60' E 012°45'0 0.0
2014-Oct-30 01:31N 55°60' E 012°45'0 0.0
2014-Oct-30 00:31N 55°60' E 012°45'0 0.0
2014-Oct-29 23:34N 55°60' E 012°45'0 0.0
2014-Oct-29 22:31N 55°60' E 012°45'0 0.0
2014-Oct-29 21:31N 55°60' E 012°45'0 0.0
2014-Oct-29 20:28N 55°60' E 012°45'0 0.0
2014-Oct-29 19:31N 55°60' E 012°45'0 0.0
2014-Oct-29 18:31N 55°60' E 012°45'0 0.0
2014-Oct-29 17:31N 55°60' E 012°45'0 0.0
2014-Oct-29 16:28N 55°60' E 012°45'0 0.0
2014-Oct-29 15:31N 55°60' E 012°45'0 0.0
2014-Oct-29 14:31N 55°60' E 012°45'0 0.0
2014-Oct-29 13:31N 55°60' E 012°45'0 0.0
2014-Oct-29 12:28N 55°60' E 012°45'0 0.0
2014-Oct-29 11:31N 55°60' E 012°45'4 3.6
2014-Oct-29 10:32N 55°56' E 012°44'1 1.1
2014-Oct-29 09:31N 55°55' E 012°45'0 0.4
2014-Oct-29 08:31N 55°56' E 012°45'2 2.0
2014-Oct-29 07:33N 55°56' E 012°42'4 3.9
2014-Oct-29 06:28N 55°60' E 012°45'0 0.0
2014-Oct-29 05:31N 55°60' E 012°45'0 0.0
2014-Oct-29 04:28N 55°60' E 012°45'0 0.0
2014-Oct-29 03:31N 55°60' E 012°45'0 0.0
2014-Oct-29 02:31N 55°60' E 012°45'0 0.0
2014-Oct-29 01:31N 55°60' E 012°45'0 0.0
2014-Oct-29 00:22N 55°60' E 012°45'0 0.0
2014-Oct-28 23:31N 55°60' E 012°45'0 0.0
2014-Oct-28 22:31N 55°60' E 012°45'0 0.0
2014-Oct-28 21:31N 55°60' E 012°45'0 0.0
2014-Oct-28 20:31N 55°60' E 012°45'0 0.0
2014-Oct-28 19:28N 55°60' E 012°45'0 0.0
2014-Oct-28 18:31N 55°60' E 012°45'0 0.0
2014-Oct-28 17:28N 55°60' E 012°45'0 0.0
2014-Oct-28 16:25N 55°60' E 012°45'0 0.0
2014-Oct-28 15:31N 55°60' E 012°45'0 0.0
2014-Oct-28 14:31N 55°60' E 012°45'0 0.0
2014-Oct-28 13:31N 55°60' E 012°45'0 0.0
2014-Oct-28 12:31N 55°60' E 012°45'0 0.0
2014-Oct-28 11:31N 55°60' E 012°45'0 0.0
2014-Oct-28 10:22N 55°60' E 012°45'0 0.0
2014-Oct-28 09:28N 55°60' E 012°45'0 0.0
2014-Oct-28 08:31N 55°60' E 012°45'0 0.0
2014-Oct-28 07:31N 55°60' E 012°45'0 0.0
2014-Oct-28 06:31N 55°60' E 012°45'0 0.0
2014-Oct-28 05:31N 55°60' E 012°45'0 0.0
2014-Oct-28 04:28N 55°60' E 012°45'0 0.0
2014-Oct-28 03:31N 55°60' E 012°45'0 0.0
2014-Oct-28 02:31N 55°60' E 012°45'0 0.0
2014-Oct-28 01:31N 55°60' E 012°45'0 0.0
2014-Oct-28 00:31N 55°60' E 012°45'0 0.0
2014-Oct-27 23:31N 55°60' E 012°45'0 0.0
2014-Oct-27 22:31N 55°60' E 012°45'0 0.0
2014-Oct-27 21:31N 55°60' E 012°45'0 0.0
2014-Oct-27 20:28N 55°60' E 012°45'0 0.0
2014-Oct-27 19:31N 55°60' E 012°45'0 0.0
2014-Oct-27 18:31N 55°60' E 012°45'0 0.0
2014-Oct-27 17:31N 55°60' E 012°45'0 0.0
2014-Oct-27 16:31N 55°60' E 012°45'0 0.0
2014-Oct-27 15:31N 55°60' E 012°45'0 0.0
2014-Oct-27 14:31N 55°60' E 012°45'0 0.0
2014-Oct-27 13:31N 55°60' E 012°45'0 0.0
2014-Oct-27 12:28N 55°60' E 012°45'0 0.0
2014-Oct-27 11:31N 55°60' E 012°45'0 0.0
2014-Oct-27 10:28N 55°60' E 012°45'0 0.0
2014-Oct-27 09:31N 55°60' E 012°45'0 0.0
2014-Oct-27 08:31N 55°60' E 012°45'0 0.0
2014-Oct-27 07:28N 55°60' E 012°45'0 0.0
2014-Oct-27 06:31N 55°60' E 012°45'0 0.0
2014-Oct-27 05:31N 55°60' E 012°45'0 0.0
2014-Oct-27 04:31N 55°60' E 012°45'0 0.0
2014-Oct-27 03:31N 55°60' E 012°45'0 0.0
2014-Oct-27 02:31N 55°60' E 012°45'0 0.0
2014-Oct-27 01:28N 55°60' E 012°45'0 0.0
2014-Oct-27 00:28N 55°60' E 012°45'0 0.0
2014-Oct-26 23:28N 55°60' E 012°45'0 0.0
2014-Oct-26 22:31N 55°60' E 012°45'0 0.0
2014-Oct-26 21:31N 55°60' E 012°45'0 0.0
2014-Oct-26 20:31N 55°60' E 012°45'0 0.0
2014-Oct-26 19:31N 55°60' E 012°45'0 0.0
2014-Oct-26 18:31N 55°60' E 012°45'0 0.0
2014-Oct-26 17:31N 55°60' E 012°45'0 0.0
2014-Oct-26 16:31N 55°60' E 012°45'0 0.0
2014-Oct-26 15:28N 55°60' E 012°45'0 0.0
2014-Oct-26 14:31N 55°60' E 012°45'4 3.8
2014-Oct-26 13:33N 56°01' E 012°39'0 0.2
2014-Oct-26 12:32N 56°01' E 012°39'0 0.1
2014-Oct-26 11:31N 56°01' E 012°38'0 0.2
2014-Oct-26 10:33N 56°01' E 012°39'2 1.9
2014-Oct-26 09:33N 55°59' E 012°39'0 0.3
2014-Oct-26 08:32N 55°59' E 012°39'0 0.0
2014-Oct-26 07:32N 55°59' E 012°39'3 3.2
2014-Oct-26 06:33N 55°60' E 012°45'0 0.0
2014-Oct-26 05:33N 55°60' E 012°45'0 0.0
2014-Oct-26 04:33N 55°60' E 012°45'0 0.0
2014-Oct-26 03:33N 55°60' E 012°45'0 0.0
2014-Oct-26 02:33N 55°60' E 012°45'0 0.0
2014-Oct-26 01:33N 55°60' E 012°45'0 0.0
2014-Oct-26 00:33N 55°60' E 012°45'0 0.0
2014-Oct-25 23:30N 55°60' E 012°45'0 0.0
2014-Oct-25 22:33N 55°60' E 012°45'0 0.0
2014-Oct-25 21:33N 55°60' E 012°45'0 0.0
2014-Oct-25 20:33N 55°60' E 012°45'0 0.0
2014-Oct-25 19:33N 55°60' E 012°45'0 0.0
2014-Oct-25 18:33N 55°60' E 012°45'0 0.0
2014-Oct-25 17:33N 55°60' E 012°45'0 0.0
2014-Oct-25 16:33N 55°60' E 012°45'0 0.0
2014-Oct-25 15:33N 55°60' E 012°45'0 0.0
2014-Oct-25 14:33N 55°60' E 012°45'0 0.0
2014-Oct-25 13:33N 55°60' E 012°45'3 3.0
2014-Oct-25 12:33N 55°59' E 012°39'4 3.7
2014-Oct-25 11:33N 56°03' E 012°38'2 1.6
2014-Oct-25 10:31N 56°04' E 012°40'2 1.9
2014-Oct-25 09:33N 56°05' E 012°37'2 2.3
2014-Oct-25 08:32N 56°05' E 012°33'0 0.4
2014-Oct-25 07:33N 56°05' E 012°34'6 6.4
2014-Oct-25 06:33N 55°59' E 012°39'3 2.9
2014-Oct-25 05:32N 55°60' E 012°45'0 0.0
2014-Oct-25 04:32N 55°60' E 012°45'0 0.0
2014-Oct-25 03:33N 55°60' E 012°45'0 0.0
2014-Oct-25 02:32N 55°60' E 012°45'0 0.0
2014-Oct-25 01:33N 55°60' E 012°45'0 0.0
2014-Oct-25 00:30N 55°60' E 012°45'0 0.0
2014-Oct-24 23:33N 55°60' E 012°45'0 0.0
2014-Oct-24 22:33N 55°60' E 012°45'0 0.0
2014-Oct-24 21:30N 55°60' E 012°45'0 0.0
2014-Oct-24 20:33N 55°60' E 012°45'0 0.0
2014-Oct-24 19:33N 55°60' E 012°45'0 0.0
2014-Oct-24 18:33N 55°60' E 012°45'0 0.0
2014-Oct-24 17:30N 55°60' E 012°45'0 0.0
2014-Oct-24 16:33N 55°60' E 012°45'0 0.0
2014-Oct-24 15:33N 55°60' E 012°45'0 0.0
2014-Oct-24 14:33N 55°60' E 012°45'0 0.0
2014-Oct-24 13:33N 55°60' E 012°45'4 3.6
2014-Oct-24 12:33N 56°01' E 012°39'1 1.4
2014-Oct-24 11:33N 56°00' E 012°38'5 5.2
2014-Oct-24 10:33N 55°55' E 012°39'1 0.9
2014-Oct-24 09:33N 55°56' E 012°41'4 3.5
2014-Oct-24 08:33N 55°59' E 012°39'0 0.1
2014-Oct-24 07:33N 55°59' E 012°39'0 0.2
2014-Oct-24 06:33N 55°59' E 012°39'3 3.3
2014-Oct-24 05:33N 55°60' E 012°45'0 0.0
2014-Oct-24 04:33N 55°60' E 012°45'0 0.0
2014-Oct-24 03:33N 55°60' E 012°45'0 0.0
2014-Oct-24 02:33N 55°60' E 012°45'0 0.0
2014-Oct-24 01:33N 55°60' E 012°45'0 0.0
2014-Oct-24 00:33N 55°60' E 012°45'0 0.0
2014-Oct-23 23:33N 55°60' E 012°45'0 0.0
2014-Oct-23 22:33N 55°60' E 012°45'0 0.0
2014-Oct-23 21:33N 55°60' E 012°45'0 0.0
2014-Oct-23 20:33N 55°60' E 012°45'0 0.0
2014-Oct-23 19:33N 55°60' E 012°45'0 0.0
2014-Oct-23 18:33N 55°60' E 012°45'0 0.0
2014-Oct-23 17:33N 55°60' E 012°45'0 0.0
2014-Oct-23 16:33N 55°60' E 012°45'0 0.0
2014-Oct-23 15:33N 55°60' E 012°45'3 2.9
2014-Oct-23 14:33N 55°57' E 012°44'1 1.0
2014-Oct-23 13:33N 55°56' E 012°43'1 0.9
2014-Oct-23 12:33N 55°56' E 012°45'1 0.6
2014-Oct-23 11:30N 55°56' E 012°45'4 4.0
2014-Oct-23 10:32N 55°60' E 012°45'0 0.0
2014-Oct-23 09:32N 55°60' E 012°45'0 0.0
2014-Oct-23 08:32N 55°60' E 012°45'0 0.0
2014-Oct-23 07:32N 55°60' E 012°45'0 0.0
2014-Oct-23 06:32N 55°60' E 012°45'0 0.0
2014-Oct-23 05:29N 55°60' E 012°45'0 0.0
2014-Oct-23 04:32N 55°60' E 012°45'0 0.0
2014-Oct-23 03:32N 55°60' E 012°45'0 0.0
2014-Oct-23 02:32N 55°60' E 012°45'0 0.0
2014-Oct-23 01:32N 55°60' E 012°45'0 0.0
2014-Oct-23 00:32N 55°60' E 012°45'0 0.0
2014-Oct-22 23:32N 55°60' E 012°45'0 0.0
2014-Oct-22 22:32N 55°60' E 012°45'0 0.0
2014-Oct-22 21:32N 55°60' E 012°45'0 0.0
2014-Oct-22 20:32N 55°60' E 012°45'0 0.0
2014-Oct-22 19:32N 55°60' E 012°45'0 0.0
2014-Oct-22 18:32N 55°60' E 012°45'0 0.0
2014-Oct-22 17:32N 55°60' E 012°45'0 0.0
2014-Oct-22 16:32N 55°60' E 012°45'0 0.0
2014-Oct-22 15:32N 55°60' E 012°45'0 0.0
2014-Oct-22 14:32N 55°60' E 012°45'0 0.0
2014-Oct-22 13:32N 55°60' E 012°45'0 0.0
2014-Oct-22 12:32N 55°60' E 012°45'0 0.0
2014-Oct-22 11:32N 55°60' E 012°45'0 0.0
2014-Oct-22 10:32N 55°60' E 012°45'0 0.0
2014-Oct-22 09:32N 55°60' E 012°45'0 0.0
2014-Oct-22 08:32N 55°60' E 012°45'0 0.0
2014-Oct-22 07:32N 55°60' E 012°45'0 0.0
2014-Oct-22 06:32N 55°60' E 012°45'0 0.0
2014-Oct-22 05:32N 55°60' E 012°45'0 0.0
2014-Oct-22 04:32N 55°60' E 012°45'0 0.0
2014-Oct-22 03:32N 55°60' E 012°45'0 0.0
2014-Oct-22 02:32N 55°60' E 012°45'0 0.0
2014-Oct-22 01:32N 55°60' E 012°45'0 0.0
2014-Oct-22 00:29N 55°60' E 012°45'  
Track history (hours):
 
Tides and Currents Weather Stations Pressure Air Temp Water Temp Dewpoint Dewpoint Depression Visibility Wind Speed Wind Dir Waves Ship Positions

Siam

Last reported at 2014-Oct-31 23:33 UTC. Time now 2014-Nov-01 00:34 UTC.
Position N 55°60' E 012°45'.

Length 22 m.

Type: Passenger vessel. MMSI: 265572320.

Date/timePositionNaut miles runAvg speedWind from/ knotsBaromVisibWave heightAir tempDewpointWater temp
2014-Oct-31 23:33N 55°60' E 012°45'0 0.0
2014-Oct-31 22:33N 55°60' E 012°45'0 0.0
2014-Oct-31 21:33N 55°60' E 012°45'0 0.0
2014-Oct-31 20:33N 55°60' E 012°45'0 0.0
2014-Oct-31 19:33N 55°60' E 012°45'0 0.0
2014-Oct-31 18:33N 55°60' E 012°45'0 0.0
2014-Oct-31 17:33N 55°60' E 012°45'0 0.0
2014-Oct-31 16:33N 55°60' E 012°45'0 0.0
2014-Oct-31 15:33N 55°60' E 012°45'0 0.0
2014-Oct-31 14:33N 55°60' E 012°45'0 0.0
2014-Oct-31 13:33N 55°60' E 012°45'0 0.0
2014-Oct-31 12:30N 55°60' E 012°45'0 0.0
2014-Oct-31 11:33N 55°60' E 012°45'0 0.0
2014-Oct-31 10:33N 55°60' E 012°45'0 0.0
2014-Oct-31 09:33N 55°60' E 012°45'0 0.0
2014-Oct-31 08:33N 55°60' E 012°45'0 0.0
2014-Oct-31 07:30N 55°60' E 012°45'0 0.0
2014-Oct-31 06:33N 55°60' E 012°45'0 0.0
2014-Oct-31 05:33N 55°60' E 012°45'0 0.0
2014-Oct-31 04:33N 55°60' E 012°45'0 0.0
2014-Oct-31 03:33N 55°60' E 012°45'0 0.0
2014-Oct-31 02:33N 55°60' E 012°45'0 0.0
2014-Oct-31 01:33N 55°60' E 012°45'0 0.0
2014-Oct-31 00:33N 55°60' E 012°45'0 0.0
2014-Oct-30 23:33N 55°60' E 012°45'0 0.0
2014-Oct-30 22:33N 55°60' E 012°45'0 0.0
2014-Oct-30 21:33N 55°60' E 012°45'0 0.0
2014-Oct-30 20:33N 55°60' E 012°45'0 0.0
2014-Oct-30 19:33N 55°60' E 012°45'0 0.0
2014-Oct-30 18:30N 55°60' E 012°45'0 0.0
2014-Oct-30 17:33N 55°60' E 012°45'0 0.0
2014-Oct-30 16:33N 55°60' E 012°45'0 0.0
2014-Oct-30 15:33N 55°60' E 012°45'0 0.0
2014-Oct-30 14:33N 55°60' E 012°45'0 0.0
2014-Oct-30 13:33N 55°60' E 012°45'0 0.0
2014-Oct-30 12:33N 55°60' E 012°45'0 0.0
2014-Oct-30 11:33N 55°60' E 012°45'0 0.0
2014-Oct-30 10:33N 55°60' E 012°45'0 0.0
2014-Oct-30 09:33N 55°60' E 012°45'0 0.0
2014-Oct-30 08:33N 55°60' E 012°45'0 0.0
2014-Oct-30 07:33N 55°60' E 012°45'0 0.0
2014-Oct-30 06:27N 55°60' E 012°45'0 0.0
2014-Oct-30 05:34N 55°60' E 012°45'0 0.0
2014-Oct-30 04:34N 55°60' E 012°45'0 0.0
2014-Oct-30 03:31N 55°60' E 012°45'0 0.0
2014-Oct-30 02:31N 55°60' E 012°45'0 0.0
2014-Oct-30 01:31N 55°60' E 012°45'0 0.0
2014-Oct-30 00:31N 55°60' E 012°45'0 0.0
2014-Oct-29 23:34N 55°60' E 012°45'0 0.0
2014-Oct-29 22:31N 55°60' E 012°45'0 0.0
2014-Oct-29 21:31N 55°60' E 012°45'0 0.0
2014-Oct-29 20:28N 55°60' E 012°45'0 0.0
2014-Oct-29 19:31N 55°60' E 012°45'0 0.0
2014-Oct-29 18:31N 55°60' E 012°45'0 0.0
2014-Oct-29 17:31N 55°60' E 012°45'0 0.0
2014-Oct-29 16:28N 55°60' E 012°45'0 0.0
2014-Oct-29 15:31N 55°60' E 012°45'0 0.0
2014-Oct-29 14:31N 55°60' E 012°45'0 0.0
2014-Oct-29 13:31N 55°60' E 012°45'0 0.0
2014-Oct-29 12:28N 55°60' E 012°45'0 0.0
2014-Oct-29 11:31N 55°60' E 012°45'4 3.6
2014-Oct-29 10:32N 55°56' E 012°44'1 1.1
2014-Oct-29 09:31N 55°55' E 012°45'0 0.4
2014-Oct-29 08:31N 55°56' E 012°45'2 2.0
2014-Oct-29 07:33N 55°56' E 012°42'4 3.9
2014-Oct-29 06:28N 55°60' E 012°45'0 0.0
2014-Oct-29 05:31N 55°60' E 012°45'0 0.0
2014-Oct-29 04:28N 55°60' E 012°45'0 0.0
2014-Oct-29 03:31N 55°60' E 012°45'0 0.0
2014-Oct-29 02:31N 55°60' E 012°45'0 0.0
2014-Oct-29 01:31N 55°60' E 012°45'0 0.0
2014-Oct-29 00:22N 55°60' E 012°45'0 0.0
2014-Oct-28 23:31N 55°60' E 012°45'0 0.0
2014-Oct-28 22:31N 55°60' E 012°45'0 0.0
2014-Oct-28 21:31N 55°60' E 012°45'0 0.0
2014-Oct-28 20:31N 55°60' E 012°45'0 0.0
2014-Oct-28 19:28N 55°60' E 012°45'0 0.0
2014-Oct-28 18:31N 55°60' E 012°45'0 0.0
2014-Oct-28 17:28N 55°60' E 012°45'0 0.0
2014-Oct-28 16:25N 55°60' E 012°45'0 0.0
2014-Oct-28 15:31N 55°60' E 012°45'0 0.0
2014-Oct-28 14:31N 55°60' E 012°45'0 0.0
2014-Oct-28 13:31N 55°60' E 012°45'0 0.0
2014-Oct-28 12:31N 55°60' E 012°45'0 0.0
2014-Oct-28 11:31N 55°60' E 012°45'0 0.0
2014-Oct-28 10:22N 55°60' E 012°45'0 0.0
2014-Oct-28 09:28N 55°60' E 012°45'0 0.0
2014-Oct-28 08:31N 55°60' E 012°45'0 0.0
2014-Oct-28 07:31N 55°60' E 012°45'0 0.0
2014-Oct-28 06:31N 55°60' E 012°45'0 0.0
2014-Oct-28 05:31N 55°60' E 012°45'0 0.0
2014-Oct-28 04:28N 55°60' E 012°45'0 0.0
2014-Oct-28 03:31N 55°60' E 012°45'0 0.0
2014-Oct-28 02:31N 55°60' E 012°45'0 0.0
2014-Oct-28 01:31N 55°60' E 012°45'0 0.0
2014-Oct-28 00:31N 55°60' E 012°45'0 0.0
2014-Oct-27 23:31N 55°60' E 012°45'0 0.0
2014-Oct-27 22:31N 55°60' E 012°45'0 0.0
2014-Oct-27 21:31N 55°60' E 012°45'0 0.0
2014-Oct-27 20:28N 55°60' E 012°45'0 0.0
2014-Oct-27 19:31N 55°60' E 012°45'0 0.0
2014-Oct-27 18:31N 55°60' E 012°45'0 0.0
2014-Oct-27 17:31N 55°60' E 012°45'0 0.0
2014-Oct-27 16:31N 55°60' E 012°45'0 0.0
2014-Oct-27 15:31N 55°60' E 012°45'0 0.0
2014-Oct-27 14:31N 55°60' E 012°45'0 0.0
2014-Oct-27 13:31N 55°60' E 012°45'0 0.0
2014-Oct-27 12:28N 55°60' E 012°45'0 0.0
2014-Oct-27 11:31N 55°60' E 012°45'0 0.0
2014-Oct-27 10:28N 55°60' E 012°45'0 0.0
2014-Oct-27 09:31N 55°60' E 012°45'0 0.0
2014-Oct-27 08:31N 55°60' E 012°45'0 0.0
2014-Oct-27 07:28N 55°60' E 012°45'0 0.0
2014-Oct-27 06:31N 55°60' E 012°45'0 0.0
2014-Oct-27 05:31N 55°60' E 012°45'0 0.0
2014-Oct-27 04:31N 55°60' E 012°45'0 0.0
2014-Oct-27 03:31N 55°60' E 012°45'0 0.0
2014-Oct-27 02:31N 55°60' E 012°45'0 0.0
2014-Oct-27 01:28N 55°60' E 012°45'0 0.0
2014-Oct-27 00:28N 55°60' E 012°45'0 0.0
2014-Oct-26 23:28N 55°60' E 012°45'0 0.0
2014-Oct-26 22:31N 55°60' E 012°45'0 0.0
2014-Oct-26 21:31N 55°60' E 012°45'0 0.0
2014-Oct-26 20:31N 55°60' E 012°45'0 0.0
2014-Oct-26 19:31N 55°60' E 012°45'0 0.0
2014-Oct-26 18:31N 55°60' E 012°45'0 0.0
2014-Oct-26 17:31N 55°60' E 012°45'0 0.0
2014-Oct-26 16:31N 55°60' E 012°45'0 0.0
2014-Oct-26 15:28N 55°60' E 012°45'0 0.0
2014-Oct-26 14:31N 55°60' E 012°45'4 3.8
2014-Oct-26 13:33N 56°01' E 012°39'0 0.2
2014-Oct-26 12:32N 56°01' E 012°39'0 0.1
2014-Oct-26 11:31N 56°01' E 012°38'0 0.2
2014-Oct-26 10:33N 56°01' E 012°39'2 1.9
2014-Oct-26 09:33N 55°59' E 012°39'0 0.3
2014-Oct-26 08:32N 55°59' E 012°39'0 0.0
2014-Oct-26 07:32N 55°59' E 012°39'3 3.2
2014-Oct-26 06:33N 55°60' E 012°45'0 0.0
2014-Oct-26 05:33N 55°60' E 012°45'0 0.0
2014-Oct-26 04:33N 55°60' E 012°45'0 0.0
2014-Oct-26 03:33N 55°60' E 012°45'0 0.0
2014-Oct-26 02:33N 55°60' E 012°45'0 0.0
2014-Oct-26 01:33N 55°60' E 012°45'0 0.0
2014-Oct-26 00:33N 55°60' E 012°45'0 0.0
2014-Oct-25 23:30N 55°60' E 012°45'0 0.0
2014-Oct-25 22:33N 55°60' E 012°45'0 0.0
2014-Oct-25 21:33N 55°60' E 012°45'0 0.0
2014-Oct-25 20:33N 55°60' E 012°45'0 0.0
2014-Oct-25 19:33N 55°60' E 012°45'0 0.0
2014-Oct-25 18:33N 55°60' E 012°45'0 0.0
2014-Oct-25 17:33N 55°60' E 012°45'0 0.0
2014-Oct-25 16:33N 55°60' E 012°45'0 0.0
2014-Oct-25 15:33N 55°60' E 012°45'0 0.0
2014-Oct-25 14:33N 55°60' E 012°45'0 0.0
2014-Oct-25 13:33N 55°60' E 012°45'3 3.0
2014-Oct-25 12:33N 55°59' E 012°39'4 3.7
2014-Oct-25 11:33N 56°03' E 012°38'2 1.6
2014-Oct-25 10:31N 56°04' E 012°40'2 1.9
2014-Oct-25 09:33N 56°05' E 012°37'2 2.3
2014-Oct-25 08:32N 56°05' E 012°33'0 0.4
2014-Oct-25 07:33N 56°05' E 012°34'6 6.4
2014-Oct-25 06:33N 55°59' E 012°39'3 2.9
2014-Oct-25 05:32N 55°60' E 012°45'0 0.0
2014-Oct-25 04:32N 55°60' E 012°45'0 0.0
2014-Oct-25 03:33N 55°60' E 012°45'0 0.0
2014-Oct-25 02:32N 55°60' E 012°45'0 0.0
2014-Oct-25 01:33N 55°60' E 012°45'0 0.0
2014-Oct-25 00:30N 55°60' E 012°45'0 0.0
2014-Oct-24 23:33N 55°60' E 012°45'0 0.0
2014-Oct-24 22:33N 55°60' E 012°45'0 0.0
2014-Oct-24 21:30N 55°60' E 012°45'0 0.0
2014-Oct-24 20:33N 55°60' E 012°45'0 0.0
2014-Oct-24 19:33N 55°60' E 012°45'0 0.0
2014-Oct-24 18:33N 55°60' E 012°45'0 0.0
2014-Oct-24 17:30N 55°60' E 012°45'0 0.0
2014-Oct-24 16:33N 55°60' E 012°45'0 0.0
2014-Oct-24 15:33N 55°60' E 012°45'0 0.0
2014-Oct-24 14:33N 55°60' E 012°45'0 0.0
2014-Oct-24 13:33N 55°60' E 012°45'4 3.6
2014-Oct-24 12:33N 56°01' E 012°39'1 1.4
2014-Oct-24 11:33N 56°00' E 012°38'5 5.2
2014-Oct-24 10:33N 55°55' E 012°39'1 0.9
2014-Oct-24 09:33N 55°56' E 012°41'4 3.5
2014-Oct-24 08:33N 55°59' E 012°39'0 0.1
2014-Oct-24 07:33N 55°59' E 012°39'0 0.2
2014-Oct-24 06:33N 55°59' E 012°39'3 3.3
2014-Oct-24 05:33N 55°60' E 012°45'0 0.0
2014-Oct-24 04:33N 55°60' E 012°45'0 0.0
2014-Oct-24 03:33N 55°60' E 012°45'0 0.0
2014-Oct-24 02:33N 55°60' E 012°45'0 0.0
2014-Oct-24 01:33N 55°60' E 012°45'0 0.0
2014-Oct-24 00:33N 55°60' E 012°45'0 0.0
2014-Oct-23 23:33N 55°60' E 012°45'0 0.0
2014-Oct-23 22:33N 55°60' E 012°45'0 0.0
2014-Oct-23 21:33N 55°60' E 012°45'0 0.0
2014-Oct-23 20:33N 55°60' E 012°45'0 0.0
2014-Oct-23 19:33N 55°60' E 012°45'0 0.0
2014-Oct-23 18:33N 55°60' E 012°45'0 0.0
2014-Oct-23 17:33N 55°60' E 012°45'0 0.0
2014-Oct-23 16:33N 55°60' E 012°45'0 0.0
2014-Oct-23 15:33N 55°60' E 012°45'3 2.9
2014-Oct-23 14:33N 55°57' E 012°44'1 1.0
2014-Oct-23 13:33N 55°56' E 012°43'1 0.9
2014-Oct-23 12:33N 55°56' E 012°45'1 0.6
2014-Oct-23 11:30N 55°56' E 012°45'4 4.0
2014-Oct-23 10:32N 55°60' E 012°45'0 0.0
2014-Oct-23 09:32N 55°60' E 012°45'0 0.0
2014-Oct-23 08:32N 55°60' E 012°45'0 0.0
2014-Oct-23 07:32N 55°60' E 012°45'0 0.0
2014-Oct-23 06:32N 55°60' E 012°45'0 0.0
2014-Oct-23 05:29N 55°60' E 012°45'0 0.0
2014-Oct-23 04:32N 55°60' E 012°45'0 0.0
2014-Oct-23 03:32N 55°60' E 012°45'0 0.0
2014-Oct-23 02:32N 55°60' E 012°45'0 0.0
2014-Oct-23 01:32N 55°60' E 012°45'0 0.0
2014-Oct-23 00:32N 55°60' E 012°45'0 0.0
2014-Oct-22 23:32N 55°60' E 012°45'0 0.0
2014-Oct-22 22:32N 55°60' E 012°45'0 0.0
2014-Oct-22 21:32N 55°60' E 012°45'0 0.0
2014-Oct-22 20:32N 55°60' E 012°45'0 0.0
2014-Oct-22 19:32N 55°60' E 012°45'0 0.0
2014-Oct-22 18:32N 55°60' E 012°45'0 0.0
2014-Oct-22 17:32N 55°60' E 012°45'0 0.0
2014-Oct-22 16:32N 55°60' E 012°45'0 0.0
2014-Oct-22 15:32N 55°60' E 012°45'0 0.0
2014-Oct-22 14:32N 55°60' E 012°45'0 0.0
2014-Oct-22 13:32N 55°60' E 012°45'0 0.0
2014-Oct-22 12:32N 55°60' E 012°45'0 0.0
2014-Oct-22 11:32N 55°60' E 012°45'0 0.0
2014-Oct-22 10:32N 55°60' E 012°45'0 0.0
2014-Oct-22 09:32N 55°60' E 012°45'0 0.0
2014-Oct-22 08:32N 55°60' E 012°45'0 0.0
2014-Oct-22 07:32N 55°60' E 012°45'0 0.0
2014-Oct-22 06:32N 55°60' E 012°45'0 0.0
2014-Oct-22 05:32N 55°60' E 012°45'0 0.0
2014-Oct-22 04:32N 55°60' E 012°45'0 0.0
2014-Oct-22 03:32N 55°60' E 012°45'0 0.0
2014-Oct-22 02:32N 55°60' E 012°45'0 0.0
2014-Oct-22 01:32N 55°60' E 012°45'0 0.0
2014-Oct-22 00:29N 55°60' E 012°45'  

Dump ship's entire track history